Time;durP1;ratioP1;P1;durP2;ratioP2;P2;SDS_P1;SDS_P2;PMS_P1;PMS_P2;Temp;Humidity;BMP_temperature;BMP_pressure;BME280_temperature;BME280_humidity;BME280_pressure;Samples;Min_cycle;Max_cycle;Signal;HPM_P1;HPM_P2
2021/03/10 00:00:08;;;;;;;60.20;20.72;;;;;;;-8.32;76.53;100222.47;1849390;77;20942;-75
2021/03/10 00:02:46;;;;;;;53.75;19.35;;;;;;;-8.30;76.59;100221.76;1873306;75;22658;-74
2021/03/10 00:05:14;;;;;;;49.30;18.10;;;;;;;-8.36;76.63;100224.66;1841246;77;20999;-72
2021/03/10 00:07:42;;;;;;;53.83;18.12;;;;;;;-8.39;76.62;100231.16;1841405;77;21346;-75
2021/03/10 00:10:12;;;;;;;53.40;16.90;;;;;;;-8.41;76.75;100229.69;1841262;78;20980;-74
2021/03/10 00:12:40;;;;;;;56.73;19.77;;;;;;;-8.42;76.83;100236.02;1841271;78;20979;-73
2021/03/10 00:15:10;;;;;;;51.63;19.12;;;;;;;-8.44;76.98;100232.70;1841327;77;21130;-73
2021/03/10 00:17:41;;;;;;;48.42;17.48;;;;;;;-8.46;77.13;100237.37;1841379;78;20992;-77
2021/03/10 00:20:12;;;;;;;47.67;16.75;;;;;;;-8.49;77.31;100240.38;1841447;78;21174;-75
2021/03/10 00:22:39;;;;;;;45.33;17.20;;;;;;;-8.51;77.39;100237.90;1841076;77;21007;-75
2021/03/10 00:25:10;;;;;;;43.55;17.37;;;;;;;-8.52;77.43;100240.73;1841369;78;20916;-76
2021/03/10 00:27:40;;;;;;;55.58;20.45;;;;;;;-8.54;77.51;100236.92;1841342;78;20944;-74
2021/03/10 00:30:09;;;;;;;75.30;23.60;;;;;;;-8.55;77.51;100231.77;1841436;78;21062;-74
2021/03/10 00:32:37;;;;;;;76.72;26.37;;;;;;;-8.56;77.52;100234.93;1841255;78;22088;-74
2021/03/10 00:35:08;;;;;;;60.43;21.48;;;;;;;-8.59;77.45;100230.45;1836420;77;20932;-73
2021/03/10 00:37:36;;;;;;;68.83;23.38;;;;;;;-8.62;77.56;100226.81;1841284;78;21134;-74
2021/03/10 00:40:05;;;;;;;78.67;27.27;;;;;;;-8.61;77.69;100224.48;1841164;78;21055;-75
2021/03/10 00:42:33;;;;;;;62.48;21.77;;;;;;;-8.64;77.64;100223.00;1763336;80;21560;-74
2021/03/10 00:45:01;;;;;;;60.85;19.62;;;;;;;-8.64;77.68;100222.17;1751082;80;21201;-73
2021/03/10 00:47:28;;;;;;;54.25;18.52;;;;;;;-8.63;77.81;100229.15;1750786;81;21068;-75
2021/03/10 00:49:58;;;;;;;66.25;22.55;;;;;;;-8.63;77.98;100223.33;1751038;80;20993;-75
2021/03/10 00:52:25;;;;;;;54.63;20.08;;;;;;;-8.62;77.97;100222.83;1750900;81;20949;-75
2021/03/10 00:54:53;;;;;;;57.03;19.35;;;;;;;-8.62;78.05;100228.14;1750914;82;21040;-76
2021/03/10 00:57:20;;;;;;;58.17;21.20;;;;;;;-8.61;78.13;100224.48;1750775;82;21363;-76
2021/03/10 00:59:48;;;;;;;51.02;18.05;;;;;;;-8.61;78.19;100221.31;1750981;82;21040;-76
2021/03/10 01:02:17;;;;;;;50.73;17.95;;;;;;;-8.58;78.29;100220.97;1756843;81;20976;-76
2021/03/10 01:04:45;;;;;;;55.60;18.05;;;;;;;-8.54;78.38;100217.45;1760081;81;20934;-76
2021/03/10 01:07:13;;;;;;;49.35;16.75;;;;;;;-8.53;78.41;100211.95;1760174;81;21051;-75
2021/03/10 01:09:40;;;;;;;47.48;16.30;;;;;;;-8.49;78.38;100207.93;1759961;81;21802;-76
2021/03/10 01:12:08;;;;;;;48.08;16.52;;;;;;;-8.43;78.39;100210.39;1759988;81;20942;-79
2021/03/10 01:14:36;;;;;;;50.50;16.97;;;;;;;-8.39;78.34;100213.03;1759507;80;20949;-74
2021/03/10 01:17:04;;;;;;;48.80;17.35;;;;;;;-8.35;78.31;100210.34;1759296;81;21166;-76
2021/03/10 01:19:32;;;;;;;51.98;18.77;;;;;;;-8.32;78.30;100204.62;1759557;81;21150;-76
2021/03/10 01:21:59;;;;;;;48.85;15.95;;;;;;;-8.30;78.37;100202.61;1759487;81;21267;-76
2021/03/10 01:24:26;;;;;;;53.35;16.48;;;;;;;-8.25;78.35;100206.07;1759324;81;20945;-75
2021/03/10 01:26:54;;;;;;;52.53;17.30;;;;;;;-8.25;78.35;100202.91;1759577;81;21408;-76
2021/03/10 01:29:22;;;;;;;50.50;17.45;;;;;;;-8.23;78.36;100198.23;1759377;80;21048;-76
2021/03/10 01:31:49;;;;;;;52.67;18.27;;;;;;;-8.21;78.37;100203.37;1759531;80;21004;-75
2021/03/10 01:34:17;;;;;;;55.45;17.65;;;;;;;-8.21;78.42;100202.87;1759486;80;21193;-75
2021/03/10 01:36:45;;;;;;;49.45;18.42;;;;;;;-8.19;78.42;100204.03;1759440;80;20945;-74
2021/03/10 01:39:12;;;;;;;52.80;18.30;;;;;;;-8.18;78.34;100197.19;1759339;81;20985;-75
2021/03/10 01:41:40;;;;;;;44.67;17.73;;;;;;;-8.17;78.24;100199.35;1759450;80;21595;-75
2021/03/10 01:44:07;;;;;;;55.88;18.80;;;;;;;-8.17;78.20;100198.02;1759546;80;21143;-75
2021/03/10 01:46:40;;;;;;;52.80;19.70;;;;;;;-8.15;78.25;100201.34;1759428;81;21197;-75
2021/03/10 01:49:08;;;;;;;58.95;18.98;;;;;;;-8.13;78.35;100193.99;1759491;81;20965;-72
2021/03/10 01:51:35;;;;;;;50.35;18.35;;;;;;;-8.10;78.46;100193.63;1759456;81;20993;-73
2021/03/10 01:54:04;;;;;;;53.23;19.02;;;;;;;-8.06;78.55;100194.39;1759484;81;21479;-74
2021/03/10 01:56:32;;;;;;;53.20;19.37;;;;;;;-8.06;78.42;100194.39;1759402;80;21134;-74
2021/03/10 01:58:59;;;;;;;71.67;22.75;;;;;;;-8.07;78.33;100197.23;1759403;81;21548;-75
2021/03/10 02:01:27;;;;;;;75.85;26.30;;;;;;;-8.09;78.27;100191.30;1757380;81;21155;-74
2021/03/10 02:03:55;;;;;;;94.28;30.82;;;;;;;-8.10;78.33;100193.13;1750456;81;20932;-74
2021/03/10 02:06:36;;;;;;;107.30;33.42;;;;;;;-8.10;78.42;100190.97;1749983;81;20933;-75
2021/03/10 02:09:11;;;;;;;111.72;36.90;;;;;;;-8.12;78.48;100188.48;1750449;80;21064;-75
2021/03/10 02:11:51;;;;;;;123.80;38.00;;;;;;;-8.13;78.50;100196.66;1750247;81;21377;-76
2021/03/10 02:14:53;;;;;;;109.22;38.58;;;;;;;-8.17;78.38;100193.52;1750263;82;20984;-79
2021/03/10 02:17:24;;;;;;;114.60;37.88;;;;;;;-8.22;78.35;100198.55;1750452;82;21033;-76
2021/03/10 02:20:12;;;;;;;100.25;34.58;;;;;;;-8.25;78.40;100192.25;1750347;81;21539;-76
2021/03/10 02:23:15;;;;;;;122.07;38.15;;;;;;;-8.27;78.48;100194.27;1748741;82;21150;-75
2021/03/10 02:26:28;;;;;;;99.42;32.53;;;;;;;-8.28;78.54;100195.77;1750307;82;21374;-76
2021/03/10 02:29:00;;;;;;;100.95;32.78;;;;;;;-8.30;78.61;100191.12;1750509;81;25717;-75
2021/03/10 02:31:30;;;;;;;103.53;35.40;;;;;;;-8.34;78.61;100192.02;1750394;82;21052;-75
2021/03/10 02:33:58;;;;;;;96.85;31.70;;;;;;;-8.36;78.72;100195.36;1720938;82;21068;-75
2021/03/10 02:36:25;;;;;;;102.70;33.25;;;;;;;-8.38;78.63;100195.54;1750399;80;20949;-75
2021/03/10 02:38:53;;;;;;;98.37;34.58;;;;;;;-8.44;78.63;100196.75;1750352;81;21379;-75
2021/03/10 02:41:21;;;;;;;104.23;33.75;;;;;;;-8.47;78.62;100194.44;1774819;80;21034;-74
2021/03/10 02:43:50;;;;;;;96.47;34.00;;;;;;;-8.48;78.63;100195.45;1789895;80;21192;-75
2021/03/10 02:46:17;;;;;;;107.22;33.75;;;;;;;-8.48;78.64;100196.27;1789955;79;21073;-75
2021/03/10 02:48:46;;;;;;;120.72;38.60;;;;;;;-8.50;78.59;100199.62;1789807;80;21154;-76
2021/03/10 02:51:16;;;;;;;115.50;38.85;;;;;;;-8.56;78.60;100198.98;1789853;80;21455;-71
2021/03/10 02:53:44;;;;;;;125.47;39.70;;;;;;;-8.58;78.66;100204.99;1789823;79;21489;-76
2021/03/10 02:56:11;;;;;;;119.72;36.98;;;;;;;-8.59;78.66;100199.84;1789710;80;20978;-72
2021/03/10 02:58:40;;;;;;;110.88;34.25;;;;;;;-8.59;78.67;100195.85;1789784;79;20975;-75
2021/03/10 03:01:10;;;;;;;99.22;31.75;;;;;;;-8.62;78.68;100193.04;1789760;80;21211;-74
2021/03/10 03:03:38;;;;;;;96.02;34.20;;;;;;;-8.63;78.75;100207.86;1798528;79;22590;-78
2021/03/10 03:06:06;;;;;;;93.47;30.50;;;;;;;-8.67;78.70;100208.73;1798914;79;21473;-74
2021/03/10 03:08:34;;;;;;;86.53;29.27;;;;;;;-8.69;78.81;100210.25;1798774;79;20989;-74
2021/03/10 03:11:05;;;;;;;93.70;29.05;;;;;;;-8.71;78.85;100205.59;1798837;79;20938;-72
2021/03/10 03:13:32;;;;;;;102.95;29.30;;;;;;;-8.72;78.99;100205.27;1798523;79;21576;-74
2021/03/10 03:16:04;;;;;;;99.75;30.88;;;;;;;-8.72;79.03;100199.95;1798811;79;21201;-74
2021/03/10 03:18:32;;;;;;;109.07;31.60;;;;;;;-8.73;79.01;100202.28;1798877;79;21002;-72
2021/03/10 03:21:01;;;;;;;83.82;27.95;;;;;;;-8.74;79.00;100207.78;1798801;79;20997;-74
2021/03/10 03:23:29;;;;;;;87.82;26.12;;;;;;;-8.77;79.05;100206.30;1798566;79;21006;-73
2021/03/10 03:25:57;;;;;;;90.72;25.92;;;;;;;-8.78;79.03;100207.80;1798812;79;20935;-73
2021/03/10 03:28:26;;;;;;;82.17;25.95;;;;;;;-8.79;79.09;100202.16;1798745;79;21279;-75
2021/03/10 03:30:55;;;;;;;82.05;26.90;;;;;;;-8.80;79.10;100203.16;1798636;79;21025;-72
2021/03/10 03:33:28;;;;;;;75.22;22.77;;;;;;;-8.81;79.07;100207.65;1798789;79;20986;-73
2021/03/10 03:35:57;;;;;;;85.62;24.77;;;;;;;-8.81;79.09;100212.14;1798957;79;21457;-74
2021/03/10 03:38:27;;;;;;;84.17;25.20;;;;;;;-8.85;79.12;100206.34;1798703;79;20926;-78
2021/03/10 03:40:55;;;;;;;94.37;28.50;;;;;;;-8.86;79.16;100200.69;1779175;79;22266;-75
2021/03/10 03:43:25;;;;;;;79.35;26.57;;;;;;;-8.88;79.17;100204.53;1766823;80;21035;-75
2021/03/10 03:45:53;;;;;;;84.13;26.50;;;;;;;-8.90;79.21;100206.03;1767552;81;20993;-77
2021/03/10 03:48:21;;;;;;;84.58;26.65;;;;;;;-8.90;79.33;100201.21;1767403;81;20986;-75
2021/03/10 03:50:48;;;;;;;86.05;27.20;;;;;;;-8.91;79.45;100200.88;1767192;81;21135;-73
2021/03/10 03:53:16;;;;;;;84.40;26.00;;;;;;;-8.90;79.46;100202.04;1767075;80;21193;-75
2021/03/10 03:55:44;;;;;;;67.45;22.73;;;;;;;-8.90;79.50;100202.04;1767297;81;21100;-75
2021/03/10 03:58:13;;;;;;;75.72;24.15;;;;;;;-8.92;79.41;100208.04;1767045;81;21563;-74
2021/03/10 04:00:41;;;;;;;77.65;24.35;;;;;;;-8.96;79.39;100203.23;1767178;81;21017;-74
2021/03/10 04:03:09;;;;;;;73.87;24.35;;;;;;;-8.97;79.47;100212.22;1765162;81;21039;-75
2021/03/10 04:05:37;;;;;;;76.53;22.60;;;;;;;-8.98;79.56;100208.73;1736837;81;21544;-74
2021/03/10 04:08:06;;;;;;;74.30;24.47;;;;;;;-9.01;79.48;100209.08;1764290;80;20940;-75
2021/03/10 04:10:37;;;;;;;78.12;23.92;;;;;;;-9.02;79.58;100214.90;1764275;81;21000;-73
2021/03/10 04:13:05;;;;;;;75.57;24.87;;;;;;;-9.03;79.71;100211.91;1764107;81;20942;-74
2021/03/10 04:15:33;;;;;;;78.40;21.02;;;;;;;-9.03;79.70;100213.73;1764335;80;21541;-75
2021/03/10 04:18:04;;;;;;;67.47;22.27;;;;;;;-9.04;79.71;100214.74;1764202;81;21258;-73
2021/03/10 04:20:32;;;;;;;57.73;20.55;;;;;;;-9.04;79.75;100209.42;1764248;80;21599;-74
2021/03/10 04:22:59;;;;;;;70.15;22.62;;;;;;;-9.03;79.81;100213.23;1764218;81;21180;-75
2021/03/10 04:25:28;;;;;;;66.37;22.22;;;;;;;-9.03;79.80;100209.75;1764198;81;21061;-75
2021/03/10 04:27:55;;;;;;;69.62;23.02;;;;;;;-9.01;79.80;100214.40;1764258;80;21092;-76
2021/03/10 04:30:24;;;;;;;63.23;21.73;;;;;;;-9.00;79.81;100214.22;1764361;81;21360;-75
2021/03/10 04:32:52;;;;;;;66.55;21.25;;;;;;;-9.00;79.79;100216.88;1764110;80;21022;-76
2021/03/10 04:35:21;;;;;;;53.48;20.25;;;;;;;-9.02;79.74;100224.21;1764219;80;21009;-77
2021/03/10 04:37:49;;;;;;;63.35;21.10;;;;;;;-9.01;79.82;100225.04;1764396;81;20966;-76
2021/03/10 04:40:18;;;;;;;59.08;20.25;;;;;;;-8.98;79.84;100226.52;1764647;80;20927;-78
2021/03/10 04:42:46;;;;;;;68.95;21.42;;;;;;;-8.98;79.84;100224.70;1763684;80;21372;-76
2021/03/10 04:45:17;;;;;;;56.88;19.98;;;;;;;-8.95;79.85;100234.16;1773711;80;21488;-78
2021/03/10 04:47:45;;;;;;;53.60;18.37;;;;;;;-8.93;79.86;100229.50;1754889;81;21509;-75
2021/03/10 04:50:16;;;;;;;57.93;19.30;;;;;;;-8.91;79.92;100232.31;1763175;81;20949;-76
2021/03/10 04:52:44;;;;;;;53.08;18.50;;;;;;;-8.90;79.91;100229.98;1763204;80;20923;-76
2021/03/10 04:55:14;;;;;;;52.53;18.02;;;;;;;-8.86;79.99;100233.95;1763118;81;21372;-79
2021/03/10 04:57:42;;;;;;;63.20;23.52;;;;;;;-8.81;80.15;100236.09;1762991;80;21030;-76
2021/03/10 05:00:10;;;;;;;66.72;22.42;;;;;;;-8.75;80.38;100232.23;1763074;81;21041;-77
2021/03/10 05:02:38;;;;;;;70.28;25.72;;;;;;;-8.70;80.33;100239.20;1761321;80;20923;-80
2021/03/10 05:05:08;;;;;;;82.53;28.90;;;;;;;-8.64;80.43;100239.47;1757429;81;21056;-76
2021/03/10 05:07:36;;;;;;;99.85;31.10;;;;;;;-8.56;80.56;100236.77;1757434;81;21448;-77
2021/03/10 05:10:06;;;;;;;89.47;33.28;;;;;;;-8.49;80.60;100241.21;1757330;81;20935;-71
2021/03/10 05:12:34;;;;;;;111.17;35.63;;;;;;;-8.39;80.63;100231.16;1757446;81;20931;-78
2021/03/10 05:15:03;;;;;;;114.00;37.42;;;;;;;-8.28;80.66;100233.89;1757122;81;21591;-71
2021/03/10 05:17:30;;;;;;;153.42;47.03;;;;;;;-8.17;80.74;100230.81;1756015;81;21168;-72
2021/03/10 05:19:58;;;;;;;123.40;37.15;;;;;;;-8.05;80.76;100233.36;1757138;81;21312;-70
2021/03/10 05:22:26;;;;;;;98.07;33.18;;;;;;;-7.94;80.77;100233.44;1758404;81;21200;-71
2021/03/10 05:24:54;;;;;;;93.65;30.27;;;;;;;-7.82;80.78;100239.17;1758671;81;21627;-71
2021/03/10 05:27:22;;;;;;;85.75;28.95;;;;;;;-7.71;80.88;100237.41;1750461;82;21150;-69
2021/03/10 05:29:50;;;;;;;72.78;25.88;;;;;;;-7.58;81.08;100237.62;1750729;82;21543;-70
2021/03/10 05:32:18;;;;;;;67.20;23.18;;;;;;;-7.44;81.08;100239.45;1750668;82;21492;-73
2021/03/10 05:34:46;;;;;;;38.75;14.20;;;;;;;-7.32;80.97;100241.98;1750013;80;21100;-78
2021/03/10 05:37:13;;;;;;;34.18;13.15;;;;;;;-7.18;80.71;100244.34;1750771;80;21487;-83
2021/03/10 05:39:41;;;;;;;32.98;13.48;;;;;;;-7.02;79.86;100245.49;1750720;82;21079;-79
2021/03/10 05:42:09;;;;;;;27.40;11.68;;;;;;;-6.87;79.38;100256.12;1750173;82;21103;-72
2021/03/10 05:44:38;;;;;;;31.90;12.73;;;;;;;-6.72;78.60;100251.60;1750676;82;21480;-75
2021/03/10 05:47:06;;;;;;;27.75;11.50;;;;;;;-6.58;77.41;100251.26;1750596;82;20949;-71
2021/03/10 05:49:36;;;;;;;38.38;13.32;;;;;;;-6.49;76.41;100255.47;1750548;80;20937;-73
2021/03/10 05:52:04;;;;;;;32.88;13.03;;;;;;;-6.39;76.20;100250.66;1750552;80;21547;-70
2021/03/10 05:54:32;;;;;;;37.80;14.63;;;;;;;-6.27;76.01;100256.30;1750702;80;21099;-69
2021/03/10 05:57:00;;;;;;;35.50;13.85;;;;;;;-6.14;75.62;100250.27;1750632;82;22466;-66
2021/03/10 05:59:28;;;;;;;36.08;12.80;;;;;;;-6.03;75.01;100259.12;1750557;82;21076;-68
2021/03/10 06:01:56;;;;;;;32.38;13.20;;;;;;;-5.91;74.96;100257.59;1750607;82;21108;-71
2021/03/10 06:04:24;;;;;;;27.20;12.50;;;;;;;-5.80;74.08;100264.25;1750465;80;21060;-70
2021/03/10 06:06:52;;;;;;;24.10;11.18;;;;;;;-5.70;73.62;100260.20;1750742;81;20944;-71
2021/03/10 06:09:21;;;;;;;27.45;12.25;;;;;;;-5.61;72.78;100260.06;1747272;82;21274;-75
2021/03/10 06:14:45;;;;;;;22.80;10.00;;;;;;;-5.42;71.35;100256.72;1888611;76;22687;-69
2021/03/10 06:17:13;;;;;;;18.32;9.03;;;;;;;-5.40;71.10;100258.69;1775372;80;20938;-73
2021/03/10 06:19:46;;;;;;;24.60;9.40;;;;;;;-5.35;70.95;100266.45;1773741;81;21213;-74
2021/03/10 06:22:15;;;;;;;20.90;9.25;;;;;;;-5.23;70.56;100273.43;1773967;80;21345;-74
2021/03/10 06:24:43;;;;;;;21.73;9.33;;;;;;;-5.19;69.91;100273.33;1849517;77;20962;-75
2021/03/10 06:27:10;;;;;;;19.92;9.68;;;;;;;-5.13;69.18;100275.73;1849820;77;20933;-75
2021/03/10 06:29:38;;;;;;;18.30;8.53;;;;;;;-5.07;69.21;100270.93;1850037;77;21529;-75
2021/03/10 06:32:10;;;;;;;21.65;8.68;;;;;;;-4.99;69.32;100276.13;1849955;77;21476;-77
2021/03/10 06:34:44;;;;;;;25.45;9.05;;;;;;;-4.93;68.90;100278.02;1850022;77;20927;-79
2021/03/10 06:37:12;;;;;;;23.27;8.98;;;;;;;-4.81;69.39;100281.80;1850045;77;21029;-77
2021/03/10 06:39:41;;;;;;;18.67;8.48;;;;;;;-4.67;70.16;100276.83;1845644;77;21179;-76
2021/03/10 06:42:13;;;;;;;18.87;8.70;;;;;;;-4.56;68.96;100279.42;1827982;77;21207;-74
2021/03/10 06:44:51;;;;;;;17.82;7.83;;;;;;;-4.43;68.60;100283.50;1816796;79;21376;-74
2021/03/10 06:47:20;;;;;;;18.20;8.75;;;;;;;-4.27;68.10;100286.34;1816591;79;20934;-75
2021/03/10 06:49:54;;;;;;;17.67;8.88;;;;;;;-4.14;67.27;100281.53;1816542;79;20966;-73
2021/03/10 06:52:21;;;;;;;17.05;7.67;;;;;;;-4.05;66.97;100285.69;1816550;78;21599;-73
2021/03/10 06:54:56;;;;;;;21.37;9.30;;;;;;;-3.91;65.59;100284.66;1816597;79;21615;-73
2021/03/10 06:57:24;;;;;;;28.35;11.28;;;;;;;-3.83;65.56;100283.12;1816608;79;21265;-77
2021/03/10 06:59:53;;;;;;;26.35;11.15;;;;;;;-3.75;64.74;100272.72;1816463;79;21029;-75
2021/03/10 07:02:30;;;;;;;30.82;13.43;;;;;;;-3.66;65.01;100277.67;1816702;79;21592;-78
2021/03/10 07:04:59;;;;;;;27.70;11.35;;;;;;;-3.52;64.61;100281.20;1816651;79;21037;-79
2021/03/10 07:07:29;;;;;;;30.80;11.68;;;;;;;-3.38;63.40;100280.14;1775385;80;20889;-81
2021/03/10 07:09:59;;;;;;;18.50;9.70;;;;;;;-3.25;63.60;100277.96;1726577;83;21199;-75
2021/03/10 07:12:29;;;;;;;19.57;9.28;;;;;;;-3.09;63.12;100279.39;1759276;80;20984;-74
2021/03/10 07:14:56;;;;;;;16.07;7.65;;;;;;;-2.86;62.28;100278.39;1738315;81;21484;-65
2021/03/10 07:17:26;;;;;;;13.83;7.47;;;;;;;-2.67;60.02;100277.52;1734898;80;21012;-70
2021/03/10 07:19:53;;;;;;;19.52;8.28;;;;;;;-2.50;58.19;100275.70;1737806;81;21012;-69
2021/03/10 07:23:07;;;;;;;20.85;8.03;;;;;;;-2.41;56.17;100276.59;1737708;82;21454;-72
2021/03/10 07:25:43;;;;;;;19.30;7.75;;;;;;;-2.28;57.70;100270.30;1737271;81;20937;-69
2021/03/10 07:28:17;;;;;;;16.35;8.80;;;;;;;-1.97;56.57;100272.21;1737072;82;21530;-74
2021/03/10 07:30:46;;;;;;;17.55;8.73;;;;;;;-1.82;55.11;100277.30;1737247;82;21008;-74
2021/03/10 07:33:17;;;;;;;16.32;8.03;;;;;;;-1.81;54.21;100273.56;1737221;82;21000;-75
2021/03/10 07:35:57;;;;;;;16.70;8.48;;;;;;;-1.74;51.00;100278.38;1737301;82;22346;-73
2021/03/10 07:38:35;;;;;;;16.37;7.22;;;;;;;-1.71;50.09;100277.91;1736701;82;21146;-70
2021/03/10 07:41:11;;;;;;;18.67;10.60;;;;;;;-1.68;48.50;100281.52;1737033;81;20976;-70
2021/03/10 07:43:49;;;;;;;14.80;8.83;;;;;;;-1.65;49.18;100278.39;1737204;82;20918;-68
2021/03/10 07:46:34;;;;;;;14.53;8.08;;;;;;;-1.56;48.74;100276.26;1754872;81;20931;-85
2021/03/10 07:49:05;;;;;;;14.25;7.10;;;;;;;-1.45;49.00;100276.38;1767715;81;21630;-82
2021/03/10 07:51:37;;;;;;;15.70;5.78;;;;;;;-1.35;47.16;100278.05;1766183;81;21127;-83
2021/03/10 07:54:25;;;;;;;13.28;6.15;;;;;;;-1.26;46.43;100277.26;1767714;81;21008;-82
2021/03/10 07:57:11;;;;;;;14.83;6.87;;;;;;;-1.10;46.96;100271.80;1767731;80;21012;-84
2021/03/10 07:59:56;;;;;;;15.85;6.05;;;;;;;-0.83;45.79;100277.23;1737473;82;20899;-86
2021/03/10 08:02:25;;;;;;;15.28;5.50;;;;;;;-0.63;44.36;100270.80;1763641;81;21202;-87
2021/03/10 08:05:01;;;;;;;15.23;7.33;;;;;;;-0.53;43.89;100272.42;1767131;80;21206;-77
2021/03/10 08:07:31;;;;;;;13.80;5.83;;;;;;;-0.47;42.67;100276.91;1767514;81;21537;-71
2021/03/10 08:09:58;;;;;;;10.93;5.08;;;;;;;-0.46;41.34;100267.25;1767710;81;21489;-85
2021/03/10 08:12:35;;;;;;;14.45;7.17;;;;;;;-0.42;41.81;100271.66;1767604;81;21018;-87
2021/03/10 08:15:06;;;;;;;9.53;5.37;;;;;;;-0.57;41.75;100269.88;1753923;81;21199;-89
2021/03/10 08:17:33;;;;;;;7.80;4.40;;;;;;;-0.73;42.62;100266.75;1749590;81;21020;-82
2021/03/10 08:20:04;;;;;;;7.58;4.20;;;;;;;-0.67;41.79;100265.86;1809985;79;21113;-86
2021/03/10 08:22:32;;;;;;;11.73;5.83;;;;;;;-0.43;41.15;100261.92;1810010;79;21010;-83
2021/03/10 08:25:01;;;;;;;11.48;4.83;;;;;;;-0.24;42.17;100263.55;1809974;79;20927;-83
2021/03/10 08:27:36;;;;;;;11.73;4.87;;;;;;;-0.15;40.88;100268.94;1809917;79;21393;-84
2021/03/10 08:30:07;;;;;;;10.35;4.90;;;;;;;-0.06;39.89;100270.79;1809945;79;21006;-81
2021/03/10 08:32:35;;;;;;;10.65;4.97;;;;;;;0.01;40.58;100262.05;1810007;79;21062;-73
2021/03/10 08:35:14;;;;;;;11.75;5.85;;;;;;;0.03;40.54;100265.86;1810028;79;21542;-82
2021/03/10 08:37:42;;;;;;;12.45;7.12;;;;;;;-0.04;39.99;100268.16;1810836;79;20967;-83
2021/03/10 08:40:12;;;;;;;12.30;6.87;;;;;;;0.11;40.18;100265.55;1810010;79;21380;-78
2021/03/10 08:42:45;;;;;;;13.65;6.92;;;;;;;0.48;40.24;100261.66;1809846;79;21513;-78
2021/03/10 08:45:28;;;;;;;24.05;8.10;;;;;;;0.60;38.27;100261.12;1809890;79;20983;-76
2021/03/10 08:48:00;;;;;;;33.30;12.03;;;;;;;0.13;38.41;100260.73;1811717;79;21034;-81
2021/03/10 08:50:40;;;;;;;16.82;7.92;;;;;;;-0.26;40.55;100261.61;1811270;79;20927;-87
2021/03/10 08:53:09;;;;;;;18.67;7.65;;;;;;;-0.28;41.36;100266.41;1810393;79;23504;-84
2021/03/10 08:55:37;;;;;;;21.25;6.90;;;;;;;0.07;40.61;100256.26;1810357;79;20899;-84
2021/03/10 08:58:10;;;;;;;22.55;7.78;;;;;;;0.60;39.30;100254.36;1810162;78;20974;-86
2021/03/10 09:00:38;;;;;;;20.80;7.40;;;;;;;1.06;39.53;100247.86;1810251;79;21494;-86
2021/03/10 09:03:16;;;;;;;15.10;6.40;;;;;;;1.41;39.01;100243.73;1810259;79;20879;-85
2021/03/10 09:05:47;;;;;;;15.95;7.87;;;;;;;1.59;37.26;100247.63;1810788;79;21219;-88
2021/03/10 09:08:17;;;;;;;17.00;8.13;;;;;;;1.49;36.93;100244.18;1810653;79;20994;-85
2021/03/10 09:10:48;;;;;;;18.27;8.78;;;;;;;1.49;37.33;100246.06;1810126;79;21065;-86
2021/03/10 09:13:35;;;;;;;22.52;8.30;;;;;;;1.77;37.83;100243.36;1809949;79;21006;-84
2021/03/10 09:16:11;;;;;;;14.68;5.97;;;;;;;2.32;36.22;100245.44;1810323;79;21628;-87
2021/03/10 09:18:40;;;;;;;11.12;6.67;;;;;;;2.41;35.49;100243.15;1812395;79;21208;-80
2021/03/10 09:21:08;;;;;;;12.70;6.80;;;;;;;2.45;36.92;100242.42;1809850;79;20923;-81
2021/03/10 09:23:38;;;;;;;10.45;5.85;;;;;;;2.53;34.67;100243.36;1809521;79;21081;-81
2021/03/10 09:26:07;;;;;;;12.37;5.80;;;;;;;2.37;35.81;100238.75;1809977;79;21474;-76
2021/03/10 09:28:45;;;;;;;7.53;4.72;;;;;;;2.41;35.61;100234.48;1873767;76;22634;-77
2021/03/10 09:31:30;;;;;;;12.55;5.83;;;;;;;2.46;33.74;100239.17;1815491;78;21003;-77
2021/03/10 09:34:05;;;;;;;10.30;6.37;;;;;;;2.51;34.15;100247.39;1841162;78;21188;-76
2021/03/10 09:36:41;;;;;;;11.18;5.97;;;;;;;2.43;34.37;100248.61;1840665;78;21546;-78
2021/03/10 09:39:11;;;;;;;10.13;5.50;;;;;;;2.41;34.97;100249.39;1841479;78;21078;-76
2021/03/10 09:41:47;;;;;;;12.70;5.92;;;;;;;2.61;34.94;100248.38;1825382;78;20932;-76
2021/03/10 09:44:16;;;;;;;11.12;6.08;;;;;;;2.51;33.97;100252.81;1808195;79;20932;-77
2021/03/10 09:46:47;;;;;;;14.13;6.00;;;;;;;2.12;34.33;100246.46;1779894;79;21220;-80
2021/03/10 09:49:18;;;;;;;10.23;5.17;;;;;;;1.97;35.86;100248.34;1808639;79;21034;-83
2021/03/10 09:51:48;;;;;;;14.75;5.58;;;;;;;2.22;36.47;100245.29;1808655;79;21153;-79
2021/03/10 09:54:26;;;;;;;9.05;4.60;;;;;;;2.36;35.35;100247.13;1807411;79;21040;-79
2021/03/10 09:56:56;;;;;;;9.95;5.33;;;;;;;2.37;34.78;100248.23;1808121;78;20951;-79
2021/03/10 09:59:32;;;;;;;16.12;6.58;;;;;;;2.23;34.93;100245.58;1806855;79;22309;-79
2021/03/10 10:02:01;;;;;;;8.88;5.15;;;;;;;1.97;35.86;100245.64;1808547;79;21043;-78
2021/03/10 10:04:31;;;;;;;11.85;6.33;;;;;;;1.81;36.50;100242.34;1808303;78;20987;-77
2021/03/10 10:07:01;;;;;;;10.15;6.15;;;;;;;1.98;36.60;100236.45;1808653;78;21027;-76
2021/03/10 10:09:30;;;;;;;12.75;5.40;;;;;;;2.37;35.77;100242.00;1807688;79;20983;-77
2021/03/10 10:12:00;;;;;;;12.75;5.03;;;;;;;2.48;34.81;100242.45;1808232;79;21191;-78
2021/03/10 10:14:31;;;;;;;14.07;5.43;;;;;;;2.45;34.21;100234.81;1806788;79;21598;-79
2021/03/10 10:17:00;;;;;;;14.30;5.58;;;;;;;2.42;35.03;100230.71;1808601;79;21538;-77
2021/03/10 10:19:29;;;;;;;10.20;5.12;;;;;;;2.51;35.70;100235.19;1779237;79;21047;-78
2021/03/10 10:21:57;;;;;;;13.50;6.53;;;;;;;2.74;34.72;100233.67;1806745;79;21122;-79
2021/03/10 10:24:24;;;;;;;8.75;4.95;;;;;;;2.82;34.26;100230.55;1807466;78;21227;-82
2021/03/10 10:26:52;;;;;;;9.20;4.65;;;;;;;2.99;34.03;100234.56;1800978;79;21053;-79
2021/03/10 10:29:22;;;;;;;10.15;5.80;;;;;;;2.90;33.83;100227.92;1795561;79;21576;-78
2021/03/10 10:31:51;;;;;;;11.68;5.87;;;;;;;2.82;33.79;100226.48;1794776;80;21163;-79
2021/03/10 10:34:21;;;;;;;9.05;5.80;;;;;;;2.82;34.52;100222.41;1795152;80;21132;-80
2021/03/10 10:36:50;;;;;;;9.18;5.22;;;;;;;3.04;35.34;100231.11;1794487;79;21175;-78
2021/03/10 10:39:21;;;;;;;10.13;5.85;;;;;;;3.16;33.88;100230.47;1791177;79;21018;-80
2021/03/10 10:41:48;;;;;;;9.35;5.70;;;;;;;2.94;33.74;100231.24;1772137;79;21469;-83
2021/03/10 10:44:17;;;;;;;8.05;5.20;;;;;;;2.62;34.39;100221.56;1791773;80;21061;-79
2021/03/10 10:46:47;;;;;;;8.75;4.97;;;;;;;2.26;34.75;100220.70;1792383;80;20934;-81
2021/03/10 10:49:15;;;;;;;9.58;5.37;;;;;;;2.25;36.73;100210.94;1792610;80;22685;-82
2021/03/10 10:51:44;;;;;;;10.18;5.65;;;;;;;2.47;36.98;100211.83;1792318;80;20930;-82
2021/03/10 10:54:13;;;;;;;10.75;5.42;;;;;;;2.54;34.76;100217.91;1791668;79;20938;-82
2021/03/10 10:56:42;;;;;;;13.43;5.65;;;;;;;2.30;35.10;100217.80;1772888;80;21053;-82
2021/03/10 10:59:13;;;;;;;8.55;5.55;;;;;;;2.20;35.75;100217.63;1790442;79;20919;-84
2021/03/10 11:01:43;;;;;;;7.65;5.22;;;;;;;2.16;35.15;100221.88;1794476;78;21267;-82
2021/03/10 11:04:12;;;;;;;10.88;5.40;;;;;;;2.14;35.41;100216.71;1806950;79;20984;-84
2021/03/10 11:06:40;;;;;;;15.63;6.70;;;;;;;2.22;36.13;100212.25;1806251;79;21023;-83
2021/03/10 11:09:07;;;;;;;20.60;7.12;;;;;;;2.17;36.43;100211.34;1806225;79;21822;-82
2021/03/10 11:11:36;;;;;;;10.48;5.80;;;;;;;1.94;36.94;100206.33;1806393;79;20917;-83
2021/03/10 11:14:06;;;;;;;9.68;5.30;;;;;;;1.86;36.58;100204.55;1806749;79;21368;-82
2021/03/10 11:16:35;;;;;;;10.58;5.70;;;;;;;1.67;37.33;100199.88;1804960;78;20945;-82
2021/03/10 11:19:21;;;;;;;12.00;5.70;;;;;;;1.54;38.59;100196.93;1910185;74;23263;-85
2021/03/10 11:21:51;;;;;;;8.90;5.60;;;;;;;1.51;36.89;100195.23;1850137;77;21458;-80
2021/03/10 11:24:19;;;;;;;11.75;6.15;;;;;;;1.24;38.16;100197.13;1819736;77;22348;-79
2021/03/10 11:26:48;;;;;;;10.93;4.62;;;;;;;1.36;38.64;100189.52;1848574;77;21043;-80
2021/03/10 11:29:18;;;;;;;11.03;5.90;;;;;;;1.69;38.07;100182.87;1845832;77;21470;-84
2021/03/10 11:31:47;;;;;;;11.33;5.95;;;;;;;2.08;36.82;100187.07;1836692;77;21053;-81